Briefing drone pour Saint-laurent-nouan

Rechercher une autre localisation

Conditions de vol :


Nous sommes le : Mercredi 23 juin 2021
Il est 03:20 UTC (05:20 LT)

Lever de soleil : 03:30 UTC (05:30 LT)
Coucher de soleil : 20:21 UTC (22:21 LT)

Météo

L'essentiel des conditions de vol

VIGILANCE MÉTÉO FRANCE - Loir-et-Cher (41)
Vigilance Jaune : Orages
CARTE TEMSI
CARTES DES FRONTS
METAR de LFOJ
LFOJ 230300Z AUTO 36008KT 5000 -RADZ BR SCT009 OVC014 13/12 Q1018

Date d'émission: 23/06/2021
Heure d'émission: 03:00 UTC
Vent: 360° pour 8 KT (15 km/h)
Visibilité horizontale: 5000 m
Plafond :
- Nuages épars à 900ft (274m)
- Couvert à 1400ft (427m)
Température: 13 °C
Point de rosée: 12 °C
Humidité: 94%
Pression (QNH): 1018 hPa
TAF de LFOJ
LFOJ 222113Z 2221/2321 CNL

Conditions prévues :

Heure d'émission : Bulletin éffectué le 22 à 21:00 UTC
Prévision : Valide du 22 a 21:00 UTC au 23 a 21:00 UTC
Nuages : à 0ft (0 m)
WEBCAM POUR SAINT-LAURENT-NOUAN

Réglementation

Voler en sécurité

CARTES AERONAUTIQUE 1/500.000
CARTES VAC (LFOJ)
SUP AIP




Chargement des AIP...
NOTAM (SAINT-LAURENT-NOUAN + Terrain à proximité / FIR )




Chargement des NOTAMS...
CONTACT PREFECTURE 41
Loir-et-Cher (41) : pref-bpas@loir-et-cher.gouv.fr


Avertissement : Les données mises à disposition sont indicatives. Oxygène Drone ne pourra être tenu responsable de dégâts causés aux biens et aux personnes.